ENY3397 KORD-KCAK
Flight info
| Callsign | ENY3397 |
|---|---|
| Flight time | 0h 55m |
| Altitude | 37000 |
| Route | DUFEE LOGGR DETMR BRWNZ4 |
| Aircraft | E75L/M-SDE3GILORVW/S |
Departure
| Time | 2026-05-08 02:03 |
|---|---|
| Airport | Chicago O'Hare International Airport (KORD) |
Arrival
| Time | 2026-05-08 02:59 |
|---|---|
| Airport | Akron Canton Regional Airport (KCAK) |
| Time | Latitude | Longitude | Altitude | Speed | Heading |
|---|---|---|---|---|---|
| 2026-05-08 01:34 | 41.97727 | -87.89665 | 667 ft | 0 kts | 180° |
| 2026-05-08 01:47 | 41.97732 | -87.89665 | 665 ft | 4 kts | 178° |
| 2026-05-08 01:48 | 41.97777 | -87.89697 | 667 ft | 4 kts | 122° |
| 2026-05-08 01:48 | 41.97786 | -87.89730 | 667 ft | 4 kts | 92° |
| 2026-05-08 01:48 | 41.97786 | -87.89721 | 667 ft | 4 kts | 90° |
| 2026-05-08 01:48 | 41.97786 | -87.89685 | 667 ft | 4 kts | 90° |
| 2026-05-08 01:49 | 41.97786 | -87.89678 | 667 ft | 2 kts | 90° |
| 2026-05-08 01:52 | 41.97786 | -87.89675 | 667 ft | 1 kts | 90° |
| 2026-05-08 01:52 | 41.97786 | -87.89656 | 667 ft | 2 kts | 88° |
| 2026-05-08 01:52 | 41.97786 | -87.89638 | 667 ft | 2 kts | 91° |
| 2026-05-08 01:53 | 41.97786 | -87.89611 | 667 ft | 4 kts | 89° |
| 2026-05-08 01:53 | 41.97785 | -87.89563 | 667 ft | 6 kts | 105° |
| 2026-05-08 01:53 | 41.97757 | -87.89528 | 667 ft | 5 kts | 159° |
| 2026-05-08 01:53 | 41.97721 | -87.89528 | 667 ft | 5 kts | 181° |
| 2026-05-08 01:54 | 41.97685 | -87.89526 | 667 ft | 6 kts | 177° |
| 2026-05-08 01:54 | 41.97634 | -87.89524 | 667 ft | 8 kts | 182° |
| 2026-05-08 01:54 | 41.97567 | -87.89526 | 667 ft | 11 kts | 180° |
| 2026-05-08 01:54 | 41.97483 | -87.89525 | 667 ft | 13 kts | 184° |
| 2026-05-08 01:55 | 41.97390 | -87.89549 | 667 ft | 13 kts | 199° |
| 2026-05-08 01:55 | 41.97323 | -87.89623 | 666 ft | 13 kts | 227° |
| 2026-05-08 01:55 | 41.97273 | -87.89723 | 665 ft | 12 kts | 244° |
| 2026-05-08 01:55 | 41.97231 | -87.89832 | 664 ft | 14 kts | 244° |
| 2026-05-08 01:56 | 41.97211 | -87.89938 | 667 ft | 10 kts | 276° |
| 2026-05-08 01:56 | 41.97211 | -87.90032 | 667 ft | 10 kts | 264° |
| 2026-05-08 01:56 | 41.97202 | -87.90134 | 665 ft | 11 kts | 268° |
| 2026-05-08 01:56 | 41.97195 | -87.90229 | 679 ft | 7 kts | 217° |
| 2026-05-08 01:57 | 41.97148 | -87.90247 | 666 ft | 5 kts | 225° |
| 2026-05-08 01:57 | 41.97136 | -87.90295 | 667 ft | 7 kts | 265° |
| 2026-05-08 01:57 | 41.97138 | -87.90383 | 667 ft | 12 kts | 272° |
| 2026-05-08 01:57 | 41.97136 | -87.90469 | 666 ft | 3 kts | 233° |
| 2026-05-08 01:58 | 41.97109 | -87.90483 | 666 ft | 6 kts | 185° |
| 2026-05-08 01:58 | 41.97062 | -87.90486 | 666 ft | 1 kts | 195° |
| 2026-05-08 01:58 | 41.97049 | -87.90499 | 666 ft | 3 kts | 232° |
| 2026-05-08 01:58 | 41.97040 | -87.90555 | 666 ft | 9 kts | 269° |
| 2026-05-08 01:59 | 41.97040 | -87.90637 | 666 ft | 9 kts | 270° |
| 2026-05-08 01:59 | 41.97040 | -87.90723 | 666 ft | 8 kts | 270° |
| 2026-05-08 01:59 | 41.97040 | -87.90802 | 666 ft | 10 kts | 269° |
| 2026-05-08 01:59 | 41.97039 | -87.90913 | 666 ft | 15 kts | 269° |
| 2026-05-08 02:00 | 41.97040 | -87.91076 | 667 ft | 19 kts | 270° |
| 2026-05-08 02:00 | 41.97040 | -87.91259 | 667 ft | 19 kts | 269° |
| 2026-05-08 02:00 | 41.97039 | -87.91449 | 667 ft | 21 kts | 269° |
| 2026-05-08 02:00 | 41.97038 | -87.91654 | 667 ft | 22 kts | 269° |
| 2026-05-08 02:01 | 41.97038 | -87.91869 | 667 ft | 24 kts | 269° |
| 2026-05-08 02:01 | 41.97038 | -87.92104 | 666 ft | 26 kts | 271° |
| 2026-05-08 02:01 | 41.97038 | -87.92354 | 666 ft | 28 kts | 270° |
| 2026-05-08 02:01 | 41.97037 | -87.92603 | 666 ft | 19 kts | 268° |
| 2026-05-08 02:02 | 41.97009 | -87.92658 | 666 ft | 5 kts | 195° |
| 2026-05-08 02:02 | 41.96962 | -87.92664 | 666 ft | 9 kts | 181° |
| 2026-05-08 02:02 | 41.96908 | -87.92658 | 665 ft | 4 kts | 135° |
| 2026-05-08 02:02 | 41.96901 | -87.92527 | 665 ft | 34 kts | 89° |
| 2026-05-08 02:03 | 41.96902 | -87.91808 | 668 ft | 120 kts | 89° |
| 2026-05-08 02:03 | 41.96906 | -87.90431 | 1094 ft | 155 kts | 91° |
| 2026-05-08 02:03 | 41.96935 | -87.88974 | 2095 ft | 164 kts | 89° |
| 2026-05-08 02:03 | 41.96892 | -87.87339 | 2637 ft | 185 kts | 109° |
| 2026-05-08 02:04 | 41.96395 | -87.85689 | 3275 ft | 200 kts | 106° |
| 2026-05-08 02:04 | 41.96322 | -87.83783 | 3930 ft | 217 kts | 82° |
| 2026-05-08 02:04 | 41.96646 | -87.81685 | 4543 ft | 237 kts | 74° |
| 2026-05-08 02:04 | 41.97101 | -87.79496 | 5146 ft | 254 kts | 72° |
| 2026-05-08 02:05 | 41.97586 | -87.77120 | 5802 ft | 276 kts | 73° |
| 2026-05-08 02:05 | 41.98087 | -87.74537 | 6463 ft | 293 kts | 73° |
| 2026-05-08 02:05 | 41.98594 | -87.71843 | 7340 ft | 299 kts | 73° |
| 2026-05-08 02:05 | 41.99099 | -87.69102 | 8205 ft | 305 kts | 73° |
| 2026-05-08 02:06 | 41.99617 | -87.66310 | 9064 ft | 310 kts | 72° |
| 2026-05-08 02:06 | 42.00148 | -87.63479 | 9859 ft | 315 kts | 72° |
| 2026-05-08 02:06 | 42.00703 | -87.60567 | 10389 ft | 330 kts | 72° |
| 2026-05-08 02:06 | 42.01295 | -87.57502 | 10876 ft | 345 kts | 72° |
| 2026-05-08 02:07 | 42.01894 | -87.54391 | 11592 ft | 351 kts | 72° |
| 2026-05-08 02:07 | 42.02502 | -87.51191 | 12425 ft | 356 kts | 71° |
| 2026-05-08 02:07 | 42.03122 | -87.47944 | 13285 ft | 361 kts | 71° |
| 2026-05-08 02:07 | 42.03754 | -87.44651 | 14113 ft | 366 kts | 71° |
| 2026-05-08 02:08 | 42.04395 | -87.41314 | 14944 ft | 371 kts | 71° |
| 2026-05-08 02:08 | 42.05045 | -87.37932 | 15813 ft | 375 kts | 71° |
| 2026-05-08 02:08 | 42.05707 | -87.34511 | 16685 ft | 380 kts | 70° |
| 2026-05-08 02:08 | 42.06380 | -87.31053 | 17589 ft | 383 kts | 71° |
| 2026-05-08 02:09 | 42.07064 | -87.27561 | 18394 ft | 388 kts | 70° |
| 2026-05-08 02:09 | 42.07760 | -87.24022 | 19102 ft | 393 kts | 70° |
| 2026-05-08 02:09 | 42.08468 | -87.20441 | 19794 ft | 398 kts | 70° |
| 2026-05-08 02:09 | 42.09186 | -87.16825 | 20475 ft | 403 kts | 70° |
| 2026-05-08 02:10 | 42.09916 | -87.13157 | 21150 ft | 407 kts | 70° |
| 2026-05-08 02:10 | 42.10657 | -87.09449 | 21795 ft | 412 kts | 69° |
| 2026-05-08 02:10 | 42.11322 | -87.05723 | 22351 ft | 420 kts | 77° |
| 2026-05-08 02:10 | 42.11613 | -87.01772 | 22907 ft | 428 kts | 83° |
| 2026-05-08 02:11 | 42.11737 | -86.97696 | 22930 ft | 439 kts | 84° |
| 2026-05-08 02:11 | 42.11847 | -86.93574 | 22959 ft | 441 kts | 84° |
| 2026-05-08 02:11 | 42.11970 | -86.89439 | 22942 ft | 441 kts | 84° |
| 2026-05-08 02:11 | 42.12103 | -86.85306 | 22930 ft | 442 kts | 84° |
| 2026-05-08 02:12 | 42.12241 | -86.81172 | 22937 ft | 442 kts | 84° |
| 2026-05-08 02:12 | 42.12380 | -86.77037 | 22937 ft | 442 kts | 84° |
| 2026-05-08 02:12 | 42.12519 | -86.72895 | 22939 ft | 442 kts | 84° |
| 2026-05-08 02:12 | 42.12658 | -86.68759 | 22939 ft | 442 kts | 84° |
| 2026-05-08 02:13 | 42.12795 | -86.64617 | 22941 ft | 442 kts | 84° |
| 2026-05-08 02:13 | 42.12931 | -86.60480 | 22942 ft | 442 kts | 84° |
| 2026-05-08 02:13 | 42.13066 | -86.56342 | 22959 ft | 442 kts | 84° |
| 2026-05-08 02:13 | 42.13200 | -86.52193 | 22927 ft | 443 kts | 84° |
| 2026-05-08 02:14 | 42.13332 | -86.48042 | 22936 ft | 444 kts | 84° |
| 2026-05-08 02:14 | 42.13463 | -86.43886 | 22939 ft | 444 kts | 84° |
| 2026-05-08 02:14 | 42.13592 | -86.39732 | 22937 ft | 444 kts | 84° |
| 2026-05-08 02:14 | 42.13720 | -86.35586 | 22938 ft | 444 kts | 84° |
| 2026-05-08 02:15 | 42.13846 | -86.31430 | 22962 ft | 443 kts | 84° |
| 2026-05-08 02:15 | 42.13970 | -86.27283 | 22923 ft | 441 kts | 84° |
| 2026-05-08 02:15 | 42.14091 | -86.23209 | 22941 ft | 441 kts | 84° |
| 2026-05-08 02:15 | 42.14212 | -86.19070 | 22943 ft | 441 kts | 84° |
| 2026-05-08 02:16 | 42.14333 | -86.14931 | 22931 ft | 442 kts | 84° |
| 2026-05-08 02:16 | 42.14451 | -86.10790 | 22939 ft | 443 kts | 84° |
| 2026-05-08 02:16 | 42.14453 | -86.06641 | 22951 ft | 444 kts | 89° |
| 2026-05-08 02:16 | 42.14321 | -86.02474 | 22937 ft | 445 kts | 90° |
| 2026-05-08 02:17 | 42.14198 | -85.98316 | 22942 ft | 444 kts | 89° |
| 2026-05-08 02:17 | 42.14091 | -85.94149 | 22945 ft | 444 kts | 89° |
| 2026-05-08 02:17 | 42.13992 | -85.89995 | 22943 ft | 444 kts | 89° |
| 2026-05-08 02:17 | 42.13895 | -85.85835 | 22950 ft | 444 kts | 89° |
| 2026-05-08 02:18 | 42.13800 | -85.81670 | 22949 ft | 444 kts | 89° |
| 2026-05-08 02:18 | 42.13703 | -85.77518 | 22948 ft | 444 kts | 89° |
| 2026-05-08 02:18 | 42.13605 | -85.73359 | 22950 ft | 444 kts | 89° |
| 2026-05-08 02:18 | 42.13506 | -85.69203 | 22952 ft | 444 kts | 89° |
| 2026-05-08 02:19 | 42.13407 | -85.65102 | 22953 ft | 444 kts | 89° |
| 2026-05-08 02:19 | 42.13304 | -85.60938 | 22953 ft | 444 kts | 89° |
| 2026-05-08 02:19 | 42.13201 | -85.56773 | 22954 ft | 444 kts | 89° |
| 2026-05-08 02:19 | 42.13096 | -85.52620 | 22954 ft | 444 kts | 89° |
| 2026-05-08 02:20 | 42.12989 | -85.48453 | 22952 ft | 444 kts | 89° |
| 2026-05-08 02:20 | 42.12881 | -85.44286 | 22955 ft | 444 kts | 89° |
| 2026-05-08 02:20 | 42.12771 | -85.40127 | 22953 ft | 446 kts | 89° |
| 2026-05-08 02:20 | 42.12660 | -85.35953 | 22954 ft | 446 kts | 89° |
| 2026-05-08 02:21 | 42.12547 | -85.31768 | 22955 ft | 446 kts | 89° |
| 2026-05-08 02:21 | 42.12433 | -85.27592 | 22959 ft | 446 kts | 89° |
| 2026-05-08 02:21 | 42.12318 | -85.23478 | 22961 ft | 446 kts | 89° |
| 2026-05-08 02:21 | 42.12201 | -85.19305 | 22961 ft | 446 kts | 89° |
| 2026-05-08 02:22 | 42.12082 | -85.15136 | 22962 ft | 446 kts | 89° |
| 2026-05-08 02:22 | 42.11962 | -85.10958 | 22963 ft | 446 kts | 89° |
| 2026-05-08 02:22 | 42.11822 | -85.06783 | 22964 ft | 446 kts | 91° |
| 2026-05-08 02:22 | 42.11580 | -85.02609 | 22964 ft | 448 kts | 92° |
| 2026-05-08 02:23 | 42.11323 | -84.98435 | 22963 ft | 447 kts | 92° |
| 2026-05-08 02:23 | 42.11073 | -84.94258 | 22961 ft | 447 kts | 92° |
| 2026-05-08 02:23 | 42.10827 | -84.90076 | 22960 ft | 447 kts | 92° |
| 2026-05-08 02:23 | 42.10585 | -84.85904 | 22963 ft | 447 kts | 92° |
| 2026-05-08 02:24 | 42.10342 | -84.81719 | 22964 ft | 447 kts | 92° |
| 2026-05-08 02:24 | 42.10097 | -84.77545 | 22968 ft | 447 kts | 92° |
| 2026-05-08 02:24 | 42.09852 | -84.73369 | 22968 ft | 447 kts | 92° |
| 2026-05-08 02:24 | 42.09606 | -84.69197 | 22971 ft | 447 kts | 92° |
| 2026-05-08 02:25 | 42.09357 | -84.65011 | 22970 ft | 448 kts | 92° |
| 2026-05-08 02:25 | 42.09108 | -84.60826 | 22973 ft | 448 kts | 92° |
| 2026-05-08 02:25 | 42.08857 | -84.56650 | 22971 ft | 448 kts | 92° |
| 2026-05-08 02:25 | 42.08605 | -84.52472 | 22976 ft | 448 kts | 92° |
| 2026-05-08 02:26 | 42.08355 | -84.48347 | 22972 ft | 448 kts | 92° |
| 2026-05-08 02:26 | 42.08097 | -84.44118 | 22970 ft | 448 kts | 92° |
| 2026-05-08 02:26 | 42.07842 | -84.39986 | 22976 ft | 447 kts | 92° |
| 2026-05-08 02:26 | 42.07583 | -84.35814 | 22972 ft | 448 kts | 92° |
| 2026-05-08 02:27 | 42.07322 | -84.31638 | 22971 ft | 448 kts | 92° |
| 2026-05-08 02:27 | 42.07061 | -84.27462 | 22978 ft | 448 kts | 92° |
| 2026-05-08 02:27 | 42.06798 | -84.23287 | 22976 ft | 447 kts | 92° |
| 2026-05-08 02:27 | 42.06534 | -84.19119 | 22969 ft | 447 kts | 92° |
| 2026-05-08 02:28 | 42.06267 | -84.14938 | 22975 ft | 447 kts | 92° |
| 2026-05-08 02:28 | 42.06001 | -84.10774 | 22976 ft | 447 kts | 92° |
| 2026-05-08 02:28 | 42.05732 | -84.06604 | 22975 ft | 447 kts | 92° |
| 2026-05-08 02:28 | 42.05553 | -84.03840 | 22970 ft | 447 kts | 92° |
| 2026-05-08 02:29 | 42.05281 | -83.99670 | 22972 ft | 447 kts | 92° |
| 2026-05-08 02:29 | 42.05008 | -83.95497 | 22981 ft | 447 kts | 92° |
| 2026-05-08 02:29 | 42.04645 | -83.89973 | 22974 ft | 448 kts | 93° |
| 2026-05-08 02:29 | 42.04369 | -83.85805 | 22967 ft | 447 kts | 93° |
| 2026-05-08 02:30 | 42.04091 | -83.81638 | 22969 ft | 447 kts | 93° |
| 2026-05-08 02:30 | 42.03903 | -83.78826 | 22965 ft | 448 kts | 93° |
| 2026-05-08 02:30 | 42.03626 | -83.74709 | 22964 ft | 447 kts | 93° |
| 2026-05-08 02:30 | 42.03344 | -83.70547 | 22962 ft | 448 kts | 93° |
| 2026-05-08 02:31 | 42.03060 | -83.66363 | 22962 ft | 448 kts | 93° |
| 2026-05-08 02:31 | 42.02774 | -83.62192 | 22959 ft | 447 kts | 93° |
| 2026-05-08 02:31 | 42.02488 | -83.58034 | 22956 ft | 447 kts | 93° |
| 2026-05-08 02:31 | 42.02200 | -83.53855 | 22957 ft | 447 kts | 93° |
| 2026-05-08 02:32 | 42.01911 | -83.49694 | 22947 ft | 447 kts | 93° |
| 2026-05-08 02:32 | 42.01620 | -83.45538 | 22959 ft | 447 kts | 93° |
| 2026-05-08 02:32 | 42.01331 | -83.41375 | 22975 ft | 447 kts | 93° |
| 2026-05-08 02:32 | 42.01036 | -83.37207 | 22974 ft | 447 kts | 93° |
| 2026-05-08 02:33 | 42.00740 | -83.33045 | 22973 ft | 447 kts | 93° |
| 2026-05-08 02:33 | 42.00435 | -83.28929 | 22974 ft | 447 kts | 93° |
| 2026-05-08 02:33 | 42.00120 | -83.24760 | 22768 ft | 448 kts | 93° |
| 2026-05-08 02:33 | 41.99806 | -83.20610 | 22526 ft | 445 kts | 94° |
| 2026-05-08 02:34 | 41.99491 | -83.16472 | 22296 ft | 443 kts | 94° |
| 2026-05-08 02:34 | 41.99180 | -83.12379 | 22076 ft | 440 kts | 94° |
| 2026-05-08 02:34 | 41.98869 | -83.08293 | 21850 ft | 440 kts | 94° |
| 2026-05-08 02:34 | 41.98549 | -83.04204 | 21639 ft | 438 kts | 94° |
| 2026-05-08 02:35 | 41.98230 | -83.00136 | 21429 ft | 437 kts | 94° |
| 2026-05-08 02:35 | 41.97911 | -82.96087 | 21220 ft | 435 kts | 94° |
| 2026-05-08 02:35 | 41.97594 | -82.92080 | 21020 ft | 427 kts | 94° |
| 2026-05-08 02:35 | 41.97277 | -82.88117 | 20750 ft | 426 kts | 94° |
| 2026-05-08 02:36 | 41.96961 | -82.84176 | 20473 ft | 423 kts | 94° |
| 2026-05-08 02:36 | 41.96645 | -82.80253 | 20215 ft | 421 kts | 94° |
| 2026-05-08 02:36 | 41.96193 | -82.76369 | 19959 ft | 421 kts | 101° |
| 2026-05-08 02:36 | 41.95476 | -82.72618 | 19705 ft | 420 kts | 105° |
| 2026-05-08 02:37 | 41.94701 | -82.68848 | 19471 ft | 418 kts | 105° |
| 2026-05-08 02:37 | 41.93939 | -82.65083 | 19224 ft | 416 kts | 105° |
| 2026-05-08 02:37 | 41.93186 | -82.61335 | 18976 ft | 414 kts | 104° |
| 2026-05-08 02:37 | 41.92446 | -82.57630 | 19047 ft | 412 kts | 105° |
| 2026-05-08 02:38 | 41.91696 | -82.53865 | 18423 ft | 419 kts | 104° |
| 2026-05-08 02:38 | 41.90953 | -82.50109 | 17821 ft | 412 kts | 105° |
| 2026-05-08 02:38 | 41.90222 | -82.46422 | 17253 ft | 403 kts | 105° |
| 2026-05-08 02:38 | 41.89507 | -82.42817 | 16759 ft | 396 kts | 105° |
| 2026-05-08 02:39 | 41.88808 | -82.39300 | 16193 ft | 394 kts | 105° |
| 2026-05-08 02:39 | 41.88112 | -82.35770 | 15696 ft | 389 kts | 105° |
| 2026-05-08 02:39 | 41.87420 | -82.32271 | 15188 ft | 387 kts | 105° |
| 2026-05-08 02:39 | 41.86731 | -82.28791 | 14685 ft | 384 kts | 105° |
| 2026-05-08 02:40 | 41.86049 | -82.25354 | 14216 ft | 377 kts | 105° |
| 2026-05-08 02:40 | 41.85250 | -82.22094 | 13961 ft | 360 kts | 119° |
| 2026-05-08 02:40 | 41.83746 | -82.19570 | 13741 ft | 335 kts | 146° |
| 2026-05-08 02:40 | 41.81916 | -82.17746 | 13712 ft | 324 kts | 152° |
| 2026-05-08 02:41 | 41.80062 | -82.16006 | 13673 ft | 327 kts | 151° |
| 2026-05-08 02:41 | 41.78206 | -82.14214 | 13622 ft | 330 kts | 150° |
| 2026-05-08 02:41 | 41.76375 | -82.12418 | 13546 ft | 331 kts | 150° |
| 2026-05-08 02:41 | 41.74520 | -82.10588 | 13469 ft | 331 kts | 149° |
| 2026-05-08 02:42 | 41.72671 | -82.08751 | 13392 ft | 330 kts | 149° |
| 2026-05-08 02:42 | 41.70830 | -82.06920 | 13305 ft | 329 kts | 149° |
| 2026-05-08 02:42 | 41.68997 | -82.05093 | 13236 ft | 329 kts | 149° |
| 2026-05-08 02:42 | 41.67162 | -82.03263 | 13156 ft | 328 kts | 149° |
| 2026-05-08 02:43 | 41.65335 | -82.01443 | 13084 ft | 327 kts | 149° |
| 2026-05-08 02:43 | 41.63510 | -81.99625 | 13003 ft | 327 kts | 149° |
| 2026-05-08 02:43 | 41.61683 | -81.97807 | 12927 ft | 326 kts | 149° |
| 2026-05-08 02:43 | 41.59866 | -81.95998 | 12837 ft | 325 kts | 149° |
| 2026-05-08 02:44 | 41.58075 | -81.94218 | 12767 ft | 325 kts | 149° |
| 2026-05-08 02:44 | 41.56264 | -81.92417 | 12695 ft | 324 kts | 149° |
| 2026-05-08 02:44 | 41.54456 | -81.90621 | 12616 ft | 324 kts | 149° |
| 2026-05-08 02:44 | 41.52650 | -81.88827 | 12535 ft | 323 kts | 149° |
| 2026-05-08 02:45 | 41.50844 | -81.87036 | 12366 ft | 325 kts | 149° |
| 2026-05-08 02:45 | 41.49041 | -81.85253 | 12090 ft | 322 kts | 149° |
| 2026-05-08 02:45 | 41.47245 | -81.83478 | 11800 ft | 321 kts | 149° |
| 2026-05-08 02:45 | 41.45447 | -81.81702 | 11540 ft | 320 kts | 149° |
| 2026-05-08 02:46 | 41.43661 | -81.79933 | 11271 ft | 318 kts | 148° |
| 2026-05-08 02:46 | 41.41910 | -81.78165 | 11078 ft | 313 kts | 148° |
| 2026-05-08 02:46 | 41.40185 | -81.76430 | 10940 ft | 305 kts | 149° |
| 2026-05-08 02:46 | 41.38523 | -81.74778 | 10796 ft | 292 kts | 149° |
| 2026-05-08 02:47 | 41.36926 | -81.73197 | 10667 ft | 281 kts | 149° |
| 2026-05-08 02:47 | 41.35377 | -81.71669 | 10544 ft | 274 kts | 150° |
| 2026-05-08 02:47 | 41.33846 | -81.70165 | 10420 ft | 272 kts | 150° |
| 2026-05-08 02:47 | 41.32322 | -81.68669 | 10298 ft | 273 kts | 150° |
| 2026-05-08 02:48 | 41.30791 | -81.67168 | 10180 ft | 273 kts | 150° |
| 2026-05-08 02:48 | 41.29265 | -81.65667 | 10063 ft | 273 kts | 150° |
| 2026-05-08 02:48 | 41.27756 | -81.64186 | 9791 ft | 274 kts | 149° |
| 2026-05-08 02:48 | 41.26217 | -81.62677 | 9393 ft | 274 kts | 149° |
| 2026-05-08 02:49 | 41.24684 | -81.61171 | 8995 ft | 274 kts | 149° |
| 2026-05-08 02:49 | 41.23153 | -81.59669 | 8620 ft | 274 kts | 149° |
| 2026-05-08 02:49 | 41.21625 | -81.58170 | 8253 ft | 273 kts | 149° |
| 2026-05-08 02:49 | 41.20099 | -81.56673 | 7887 ft | 270 kts | 148° |
| 2026-05-08 02:50 | 41.18613 | -81.55216 | 7519 ft | 262 kts | 148° |
| 2026-05-08 02:50 | 41.17188 | -81.53761 | 7154 ft | 256 kts | 141° |
| 2026-05-08 02:50 | 41.16145 | -81.51849 | 6788 ft | 258 kts | 114° |
| 2026-05-08 02:50 | 41.15653 | -81.49570 | 6448 ft | 257 kts | 103° |
| 2026-05-08 02:51 | 41.15322 | -81.47245 | 6085 ft | 255 kts | 102° |
| 2026-05-08 02:51 | 41.14984 | -81.44940 | 5717 ft | 254 kts | 102° |
| 2026-05-08 02:51 | 41.14619 | -81.42653 | 5355 ft | 253 kts | 103° |
| 2026-05-08 02:51 | 41.14253 | -81.40406 | 5001 ft | 251 kts | 103° |
| 2026-05-08 02:52 | 41.13875 | -81.38122 | 4644 ft | 254 kts | 103° |
| 2026-05-08 02:52 | 41.13493 | -81.35832 | 4293 ft | 255 kts | 103° |
| 2026-05-08 02:52 | 41.13094 | -81.33534 | 3933 ft | 255 kts | 106° |
| 2026-05-08 02:52 | 41.12250 | -81.31497 | 3565 ft | 253 kts | 131° |
| 2026-05-08 02:53 | 41.11115 | -81.29730 | 3226 ft | 249 kts | 131° |
| 2026-05-08 02:53 | 41.10022 | -81.28008 | 2972 ft | 234 kts | 131° |
| 2026-05-08 02:53 | 41.08916 | -81.26562 | 2977 ft | 216 kts | 142° |
| 2026-05-08 02:53 | 41.07778 | -81.25296 | 2958 ft | 211 kts | 142° |
| 2026-05-08 02:54 | 41.06517 | -81.24468 | 2903 ft | 204 kts | 181° |
| 2026-05-08 02:54 | 41.05299 | -81.25130 | 2955 ft | 187 kts | 229° |
| 2026-05-08 02:54 | 41.04339 | -81.26296 | 3202 ft | 196 kts | 213° |
| 2026-05-08 02:54 | 41.03243 | -81.27240 | 3178 ft | 182 kts | 233° |
| 2026-05-08 02:55 | 41.02504 | -81.28582 | 3049 ft | 179 kts | 238° |
| 2026-05-08 02:55 | 41.00908 | -81.31032 | 3012 ft | 176 kts | 227° |
| 2026-05-08 02:55 | 41.00009 | -81.32162 | 2958 ft | 179 kts | 226° |
| 2026-05-08 02:56 | 40.99171 | -81.33360 | 2939 ft | 178 kts | 231° |
| 2026-05-08 02:56 | 40.98346 | -81.34601 | 2887 ft | 181 kts | 231° |
| 2026-05-08 02:56 | 40.97493 | -81.35795 | 2758 ft | 174 kts | 229° |
| 2026-05-08 02:56 | 40.96690 | -81.36915 | 2658 ft | 164 kts | 230° |
| 2026-05-08 02:57 | 40.95923 | -81.38009 | 2455 ft | 162 kts | 230° |
| 2026-05-08 02:57 | 40.95178 | -81.39070 | 2278 ft | 154 kts | 230° |
| 2026-05-08 02:57 | 40.94460 | -81.40108 | 2031 ft | 152 kts | 229° |
| 2026-05-08 02:57 | 40.93767 | -81.41083 | 1802 ft | 137 kts | 228° |
| 2026-05-08 02:58 | 40.93151 | -81.41957 | 1614 ft | 129 kts | 227° |
| 2026-05-08 02:58 | 40.92532 | -81.42836 | 1420 ft | 131 kts | 227° |
| 2026-05-08 02:58 | 40.91919 | -81.43703 | 1250 ft | 121 kts | 226° |
| 2026-05-08 02:58 | 40.91410 | -81.44421 | 1220 ft | 90 kts | 228° |
| 2026-05-08 02:59 | 40.91089 | -81.44879 | 1219 ft | 46 kts | 227° |
| 2026-05-08 02:59 | 40.90885 | -81.45177 | 1221 ft | 38 kts | 224° |
| 2026-05-08 02:59 | 40.90741 | -81.45317 | 1220 ft | 16 kts | 170° |
| 2026-05-08 02:59 | 40.90697 | -81.45258 | 1221 ft | 5 kts | 98° |
| 2026-05-08 03:00 | 40.90707 | -81.45226 | 1221 ft | 3 kts | 53° |
| 2026-05-08 03:00 | 40.90738 | -81.45170 | 1221 ft | 12 kts | 52° |
| 2026-05-08 03:00 | 40.90800 | -81.45082 | 1221 ft | 14 kts | 45° |
| 2026-05-08 03:00 | 40.90861 | -81.44979 | 1221 ft | 11 kts | 52° |
| 2026-05-08 03:01 | 40.90917 | -81.44913 | 1220 ft | 12 kts | 42° |
| 2026-05-08 03:01 | 40.90982 | -81.44827 | 1220 ft | 15 kts | 46° |
| 2026-05-08 03:01 | 40.91054 | -81.44721 | 1220 ft | 16 kts | 51° |
| 2026-05-08 03:01 | 40.91077 | -81.44576 | 1220 ft | 17 kts | 91° |
| 2026-05-08 03:02 | 40.91074 | -81.44381 | 1220 ft | 26 kts | 91° |
| 2026-05-08 03:02 | 40.91068 | -81.44108 | 1216 ft | 32 kts | 91° |
| 2026-05-08 03:02 | 40.91099 | -81.43974 | 1220 ft | 8 kts | 16° |
| 2026-05-08 03:02 | 40.91158 | -81.43958 | 1220 ft | 10 kts | 19° |
| 2026-05-08 03:03 | 40.91225 | -81.43921 | 1221 ft | 13 kts | 22° |
| 2026-05-08 03:03 | 40.91314 | -81.43870 | 1221 ft | 15 kts | 24° |
| 2026-05-08 03:03 | 40.91354 | -81.43839 | 1221 ft | 0 kts | 52° |
| 2026-05-08 03:03 | 40.91359 | -81.43838 | 1221 ft | 1 kts | 356° |
| 2026-05-08 03:04 | 40.91368 | -81.43847 | 1221 ft | 4 kts | 316° |
| 2026-05-08 03:04 | 40.91405 | -81.43894 | 1221 ft | 9 kts | 318° |
| 2026-05-08 03:04 | 40.91471 | -81.43932 | 1221 ft | 11 kts | 352° |
| 2026-05-08 03:04 | 40.91554 | -81.43930 | 1220 ft | 13 kts | 11° |
| 2026-05-08 03:05 | 40.91620 | -81.43894 | 1220 ft | 5 kts | 37° |
| 2026-05-08 03:05 | 40.91622 | -81.43892 | 1220 ft | 0 kts | 36° |
| 2026-05-08 03:05 | 40.91626 | -81.43886 | 1220 ft | 1 kts | 56° |
| 2026-05-08 03:05 | 40.91626 | -81.43861 | 1220 ft | 4 kts | 114° |
| 2026-05-08 03:06 | 40.91604 | -81.43816 | 1220 ft | 6 kts | 127° |
| 2026-05-08 03:06 | 40.91579 | -81.43773 | 1221 ft | 6 kts | 127° |
| 2026-05-08 03:06 | 40.91563 | -81.43747 | 1221 ft | 1 kts | 127° |
| 2026-05-08 03:06 | 40.91557 | -81.43737 | 1221 ft | 1 kts | 128° |
| 2026-05-08 03:07 | 40.91556 | -81.43735 | 1221 ft | 0 kts | 128° |